sensor_id;sensor_type;location;lat;lon;timestamp;pressure;altitude;pressure_sealevel;temperature;humidity
71485;BME280;59300;52.074;4.758;2023-02-04T00:02:51;103369.16;;;5.97;100.00
71485;BME280;59300;52.074;4.758;2023-02-04T00:05:53;103368.94;;;5.91;100.00
71485;BME280;59300;52.074;4.758;2023-02-04T00:08:54;103371.66;;;5.94;100.00
71485;BME280;59300;52.074;4.758;2023-02-04T00:11:56;103370.72;;;5.92;100.00
71485;BME280;59300;52.074;4.758;2023-02-04T00:14:57;103360.91;;;5.84;100.00
71485;BME280;59300;52.074;4.758;2023-02-04T00:17:58;103361.53;;;5.77;100.00
71485;BME280;59300;52.074;4.758;2023-02-04T00:21:00;103361.13;;;5.65;100.00
71485;BME280;59300;52.074;4.758;2023-02-04T00:24:01;103359.16;;;5.58;100.00
71485;BME280;59300;52.074;4.758;2023-02-04T00:27:02;103364.16;;;5.51;100.00
71485;BME280;59300;52.074;4.758;2023-02-04T00:30:04;103374.66;;;5.51;100.00
71485;BME280;59300;52.074;4.758;2023-02-04T00:33:06;103366.63;;;5.47;100.00
71485;BME280;59300;52.074;4.758;2023-02-04T00:36:07;103376.97;;;5.42;100.00
71485;BME280;59300;52.074;4.758;2023-02-04T00:39:09;103368.22;;;5.42;100.00
71485;BME280;59300;52.074;4.758;2023-02-04T00:42:10;103373.47;;;5.42;100.00
71485;BME280;59300;52.074;4.758;2023-02-04T00:45:12;103375.28;;;5.44;100.00
71485;BME280;59300;52.074;4.758;2023-02-04T00:48:13;103378.78;;;5.45;100.00
71485;BME280;59300;52.074;4.758;2023-02-04T00:51:15;103377.63;;;5.36;100.00
71485;BME280;59300;52.074;4.758;2023-02-04T00:54:16;103391.41;;;5.31;100.00
71485;BME280;59300;52.074;4.758;2023-02-04T00:57:18;103394.03;;;5.31;100.00
71485;BME280;59300;52.074;4.758;2023-02-04T01:00:20;103387.84;;;5.29;100.00
71485;BME280;59300;52.074;4.758;2023-02-04T01:03:21;103388.47;;;5.21;100.00
71485;BME280;59300;52.074;4.758;2023-02-04T01:06:22;103385.63;;;5.15;100.00
71485;BME280;59300;52.074;4.758;2023-02-04T01:09:24;103393.03;;;5.03;100.00
71485;BME280;59300;52.074;4.758;2023-02-04T01:12:25;103398.22;;;5.01;100.00
71485;BME280;59300;52.074;4.758;2023-02-04T01:15:27;103401.84;;;5.05;100.00
71485;BME280;59300;52.074;4.758;2023-02-04T01:18:28;103402.91;;;5.10;100.00
71485;BME280;59300;52.074;4.758;2023-02-04T01:21:30;103407.53;;;5.17;100.00
71485;BME280;59300;52.074;4.758;2023-02-04T01:24:32;103396.66;;;5.06;100.00
71485;BME280;59300;52.074;4.758;2023-02-04T01:27:52;103399.22;;;5.05;100.00
71485;BME280;59300;52.074;4.758;2023-02-04T01:30:53;103410.66;;;5.07;100.00
71485;BME280;59300;52.074;4.758;2023-02-04T01:33:55;103419.53;;;5.12;100.00
71485;BME280;59300;52.074;4.758;2023-02-04T01:36:56;103429.19;;;5.13;100.00
71485;BME280;59300;52.074;4.758;2023-02-04T01:39:57;103431.09;;;5.17;100.00
71485;BME280;59300;52.074;4.758;2023-02-04T01:42:59;103433.00;;;5.21;100.00
71485;BME280;59300;52.074;4.758;2023-02-04T01:46:00;103432.19;;;5.24;100.00
71485;BME280;59300;52.074;4.758;2023-02-04T01:49:03;103428.94;;;5.31;100.00
71485;BME280;59300;52.074;4.758;2023-02-04T01:52:06;103431.53;;;5.30;100.00
71485;BME280;59300;52.074;4.758;2023-02-04T01:55:13;103434.84;;;5.26;100.00
71485;BME280;59300;52.074;4.758;2023-02-04T01:58:15;103447.13;;;5.27;100.00
71485;BME280;59300;52.074;4.758;2023-02-04T02:04:37;103450.53;;;5.24;100.00
71485;BME280;59300;52.074;4.758;2023-02-04T02:07:39;103456.56;;;5.21;100.00
71485;BME280;59300;52.074;4.758;2023-02-04T02:10:41;103455.47;;;5.16;100.00
71485;BME280;59300;52.074;4.758;2023-02-04T02:13:44;103467.94;;;5.23;100.00
71485;BME280;59300;52.074;4.758;2023-02-04T02:16:46;103466.63;;;5.35;100.00
71485;BME280;59300;52.074;4.758;2023-02-04T02:19:48;103453.59;;;5.36;100.00
71485;BME280;59300;52.074;4.758;2023-02-04T02:22:58;103464.19;;;5.40;100.00
71485;BME280;59300;52.074;4.758;2023-02-04T02:26:02;103462.50;;;5.42;100.00
71485;BME280;59300;52.074;4.758;2023-02-04T02:29:04;103460.06;;;5.46;100.00
71485;BME280;59300;52.074;4.758;2023-02-04T02:32:06;103464.34;;;5.44;100.00
71485;BME280;59300;52.074;4.758;2023-02-04T02:35:08;103460.88;;;5.45;100.00
71485;BME280;59300;52.074;4.758;2023-02-04T02:38:10;103467.16;;;5.50;100.00
71485;BME280;59300;52.074;4.758;2023-02-04T02:41:11;103470.59;;;5.49;100.00
71485;BME280;59300;52.074;4.758;2023-02-04T02:44:13;103470.59;;;5.49;100.00
71485;BME280;59300;52.074;4.758;2023-02-04T02:47:18;103473.31;;;5.51;100.00
71485;BME280;59300;52.074;4.758;2023-02-04T02:50:20;103476.09;;;5.56;100.00
71485;BME280;59300;52.074;4.758;2023-02-04T02:53:23;103476.03;;;5.54;100.00
71485;BME280;59300;52.074;4.758;2023-02-04T02:56:24;103475.19;;;5.55;100.00
71485;BME280;59300;52.074;4.758;2023-02-04T02:59:26;103479.53;;;5.54;100.00
71485;BME280;59300;52.074;4.758;2023-02-04T03:02:28;103480.69;;;5.63;100.00
71485;BME280;59300;52.074;4.758;2023-02-04T03:05:30;103476.19;;;5.59;100.00
71485;BME280;59300;52.074;4.758;2023-02-04T03:08:34;103475.19;;;5.55;100.00
71485;BME280;59300;52.074;4.758;2023-02-04T03:11:36;103470.06;;;5.58;100.00
71485;BME280;59300;52.074;4.758;2023-02-04T03:14:37;103469.94;;;5.55;100.00
71485;BME280;59300;52.074;4.758;2023-02-04T03:17:39;103475.97;;;5.52;100.00
71485;BME280;59300;52.074;4.758;2023-02-04T03:20:41;103471.44;;;5.48;100.00
71485;BME280;59300;52.074;4.758;2023-02-04T03:23:43;103466.31;;;5.51;100.00
71485;BME280;59300;52.074;4.758;2023-02-04T03:26:46;103471.34;;;5.45;100.00
71485;BME280;59300;52.074;4.758;2023-02-04T03:29:48;103481.72;;;5.42;100.00
71485;BME280;59300;52.074;4.758;2023-02-04T03:32:50;103479.09;;;5.42;100.00
71485;BME280;59300;52.074;4.758;2023-02-04T03:35:51;103475.53;;;5.40;100.00
71485;BME280;59300;52.074;4.758;2023-02-04T03:38:53;103481.69;;;5.41;100.00
71485;BME280;59300;52.074;4.758;2023-02-04T03:41:54;103473.88;;;5.42;100.00
71485;BME280;59300;52.074;4.758;2023-02-04T03:44:55;103479.97;;;5.43;100.00
71485;BME280;59300;52.074;4.758;2023-02-04T03:47:57;103479.78;;;5.36;100.00
71485;BME280;59300;52.074;4.758;2023-02-04T03:50:58;103476.91;;;5.30;100.00
71485;BME280;59300;52.074;4.758;2023-02-04T03:53:59;103477.88;;;5.32;100.00
71485;BME280;59300;52.074;4.758;2023-02-04T03:57:01;103482.28;;;5.33;100.00
71485;BME280;59300;52.074;4.758;2023-02-04T04:00:02;103478.66;;;5.30;100.00
71485;BME280;59300;52.074;4.758;2023-02-04T04:03:12;103491.75;;;5.30;100.00
71485;BME280;59300;52.074;4.758;2023-02-04T04:06:13;103477.88;;;5.32;100.00
71485;BME280;59300;52.074;4.758;2023-02-04T04:09:14;103488.34;;;5.32;100.00
71485;BME280;59300;52.074;4.758;2023-02-04T04:12:16;103489.25;;;5.33;100.00
71485;BME280;59300;52.074;4.758;2023-02-04T04:15:17;103497.31;;;5.39;100.00
71485;BME280;59300;52.074;4.758;2023-02-04T04:18:18;103495.81;;;5.46;100.00
71485;BME280;59300;52.074;4.758;2023-02-04T04:21:20;103498.59;;;5.50;100.00
71485;BME280;59300;52.074;4.758;2023-02-04T04:24:22;103503.75;;;5.47;100.00
71485;BME280;59300;52.074;4.758;2023-02-04T04:27:23;103502.78;;;5.45;100.00
71485;BME280;59300;52.074;4.758;2023-02-04T04:30:24;103507.19;;;5.46;100.00
71485;BME280;59300;52.074;4.758;2023-02-04T04:33:26;103500.16;;;5.45;100.00
71485;BME280;59300;52.074;4.758;2023-02-04T04:36:27;103507.50;;;5.31;100.00
71485;BME280;59300;52.074;4.758;2023-02-04T04:39:28;103501.78;;;5.17;100.00
71485;BME280;59300;52.074;4.758;2023-02-04T04:42:30;103503.94;;;5.05;100.00
71485;BME280;59300;52.074;4.758;2023-02-04T04:45:31;103507.91;;;4.95;100.00
71485;BME280;59300;52.074;4.758;2023-02-04T04:48:33;103514.28;;;5.02;100.00
71485;BME280;59300;52.074;4.758;2023-02-04T04:51:34;103513.56;;;5.06;100.00
71485;BME280;59300;52.074;4.758;2023-02-04T04:54:35;103513.69;;;5.09;100.00
71485;BME280;59300;52.074;4.758;2023-02-04T04:57:37;103512.25;;;5.17;100.00
71485;BME280;59300;52.074;4.758;2023-02-04T05:00:38;103516.69;;;5.20;100.00
71485;BME280;59300;52.074;4.758;2023-02-04T05:03:40;103515.06;;;5.23;100.00
71485;BME280;59300;52.074;4.758;2023-02-04T05:06:41;103522.34;;;5.31;100.00
71485;BME280;59300;52.074;4.758;2023-02-04T05:09:43;103526.88;;;5.35;100.00
71485;BME280;59300;52.074;4.758;2023-02-04T05:12:44;103523.50;;;5.39;100.00
71485;BME280;59300;52.074;4.758;2023-02-04T05:15:45;103529.69;;;5.41;100.00
71485;BME280;59300;52.074;4.758;2023-02-04T05:18:47;103531.47;;;5.42;100.00
71485;BME280;59300;52.074;4.758;2023-02-04T05:21:48;103529.81;;;5.44;100.00
71485;BME280;59300;52.074;4.758;2023-02-04T05:24:49;103533.28;;;5.43;100.00
71485;BME280;59300;52.074;4.758;2023-02-04T05:27:51;103530.69;;;5.45;100.00
71485;BME280;59300;52.074;4.758;2023-02-04T05:30:52;103536.84;;;5.45;100.00
71485;BME280;59300;52.074;4.758;2023-02-04T05:33:54;103540.41;;;5.47;100.00
71485;BME280;59300;52.074;4.758;2023-02-04T05:36:55;103539.53;;;5.48;100.00
71485;BME280;59300;52.074;4.758;2023-02-04T05:39:57;103546.69;;;5.52;100.00
71485;BME280;59300;52.074;4.758;2023-02-04T05:42:58;103552.09;;;5.57;100.00
71485;BME280;59300;52.074;4.758;2023-02-04T05:46:00;103549.56;;;5.59;100.00
71485;BME280;59300;52.074;4.758;2023-02-04T05:49:02;103548.66;;;5.58;100.00
71485;BME280;59300;52.074;4.758;2023-02-04T05:52:03;103546.97;;;5.60;100.00
71485;BME280;59300;52.074;4.758;2023-02-04T05:55:05;103548.97;;;5.67;100.00
71485;BME280;59300;52.074;4.758;2023-02-04T05:58:06;103559.38;;;5.64;100.00
71485;BME280;59300;52.074;4.758;2023-02-04T06:01:08;103562.94;;;5.66;100.00
71485;BME280;59300;52.074;4.758;2023-02-04T06:04:09;103563.81;;;5.67;100.00
71485;BME280;59300;52.074;4.758;2023-02-04T06:07:11;103558.56;;;5.67;100.00
71485;BME280;59300;52.074;4.758;2023-02-04T06:10:12;103563.81;;;5.67;100.00
71485;BME280;59300;52.074;4.758;2023-02-04T06:13:13;103571.72;;;5.68;100.00
71485;BME280;59300;52.074;4.758;2023-02-04T06:16:15;103569.19;;;5.70;100.00
71485;BME280;59300;52.074;4.758;2023-02-04T06:19:16;103570.97;;;5.71;100.00
71485;BME280;59300;52.074;4.758;2023-02-04T06:22:18;103574.53;;;5.73;100.00
71485;BME280;59300;52.074;4.758;2023-02-04T06:25:20;103585.78;;;5.71;100.00
71485;BME280;59300;52.074;4.758;2023-02-04T06:28:21;103591.00;;;5.71;100.00
71485;BME280;59300;52.074;4.758;2023-02-04T06:31:23;103594.59;;;5.73;100.00
71485;BME280;59300;52.074;4.758;2023-02-04T06:34:24;103598.13;;;5.73;100.00
71485;BME280;59300;52.074;4.758;2023-02-04T06:37:26;103598.94;;;5.72;100.00
71485;BME280;59300;52.074;4.758;2023-02-04T06:40:27;103598.03;;;5.72;100.00
71485;BME280;59300;52.074;4.758;2023-02-04T06:43:28;103599.72;;;5.69;100.00
71485;BME280;59300;52.074;4.758;2023-02-04T06:46:30;103605.84;;;5.70;100.00
71485;BME280;59300;52.074;4.758;2023-02-04T06:49:31;103610.34;;;5.74;100.00
71485;BME280;59300;52.074;4.758;2023-02-04T06:52:33;103601.50;;;5.71;100.00
71485;BME280;59300;52.074;4.758;2023-02-04T06:55:34;103608.41;;;5.68;100.00
71485;BME280;59300;52.074;4.758;2023-02-04T06:58:36;103609.31;;;5.69;100.00
71485;BME280;59300;52.074;4.758;2023-02-04T07:01:37;103608.34;;;5.67;100.00
71485;BME280;59300;52.074;4.758;2023-02-04T07:04:39;103608.34;;;5.67;100.00
71485;BME280;59300;52.074;4.758;2023-02-04T07:07:40;103607.53;;;5.68;100.00
71485;BME280;59300;52.074;4.758;2023-02-04T07:10:41;103609.19;;;5.66;100.00
71485;BME280;59300;52.074;4.758;2023-02-04T07:13:43;103614.31;;;5.63;100.00
71485;BME280;59300;52.074;4.758;2023-02-04T07:16:44;103616.88;;;5.61;100.00
71485;BME280;59300;52.074;4.758;2023-02-04T07:19:46;103621.34;;;5.64;100.00
71485;BME280;59300;52.074;4.758;2023-02-04T07:22:47;103623.00;;;5.62;100.00
71485;BME280;59300;52.074;4.758;2023-02-04T07:25:49;103630.84;;;5.62;100.00
71485;BME280;59300;52.074;4.758;2023-02-04T07:28:50;103631.91;;;5.65;100.00
71485;BME280;59300;52.074;4.758;2023-02-04T07:31:52;103634.72;;;5.72;100.00
71485;BME280;59300;52.074;4.758;2023-02-04T07:34:53;103641.88;;;5.76;100.00
71485;BME280;59300;52.074;4.758;2023-02-04T07:37:55;103642.66;;;5.73;100.00
71485;BME280;59300;52.074;4.758;2023-02-04T07:40:56;103644.34;;;5.71;100.00
71485;BME280;59300;52.074;4.758;2023-02-04T07:43:58;103638.19;;;5.71;100.00
71485;BME280;59300;52.074;4.758;2023-02-04T07:46:59;103649.91;;;5.80;100.00
71485;BME280;59300;52.074;4.758;2023-02-04T07:50:00;103660.59;;;5.87;100.00
71485;BME280;59300;52.074;4.758;2023-02-04T07:53:02;103663.34;;;5.90;100.00
71485;BME280;59300;52.074;4.758;2023-02-04T07:56:03;103655.59;;;5.93;100.00
71485;BME280;59300;52.074;4.758;2023-02-04T07:59:05;103654.06;;;5.98;100.00
71485;BME280;59300;52.074;4.758;2023-02-04T08:02:06;103666.56;;;6.05;100.00
71485;BME280;59300;52.074;4.758;2023-02-04T08:05:08;103674.84;;;6.16;100.00
71485;BME280;59300;52.074;4.758;2023-02-04T08:08:09;103675.84;;;6.20;100.00
71485;BME280;59300;52.074;4.758;2023-02-04T08:11:11;103682.06;;;6.23;100.00
71485;BME280;59300;52.074;4.758;2023-02-04T08:14:12;103691.84;;;6.27;100.00
71485;BME280;59300;52.074;4.758;2023-02-04T08:17:13;103689.97;;;6.25;100.00
71485;BME280;59300;52.074;4.758;2023-02-04T08:20:15;103689.53;;;6.37;100.00
71485;BME280;59300;52.074;4.758;2023-02-04T08:23:16;103690.78;;;6.47;100.00
71485;BME280;59300;52.074;4.758;2023-02-04T08:26:18;103692.56;;;6.48;100.00
71485;BME280;59300;52.074;4.758;2023-02-04T08:29:19;103694.81;;;6.63;100.00
71485;BME280;59300;52.074;4.758;2023-02-04T08:32:20;103702.56;;;6.59;100.00
71485;BME280;59300;52.074;4.758;2023-02-04T08:35:22;103701.22;;;6.71;100.00
71485;BME280;59300;52.074;4.758;2023-02-04T08:38:23;103705.34;;;6.90;100.00
71485;BME280;59300;52.074;4.758;2023-02-04T08:41:25;103704.34;;;6.86;100.00
71485;BME280;59300;52.074;4.758;2023-02-04T08:44:26;103707.78;;;6.84;100.00
71485;BME280;59300;52.074;4.758;2023-02-04T08:47:28;103709.56;;;6.85;100.00
71485;BME280;59300;52.074;4.758;2023-02-04T08:50:29;103716.38;;;6.80;100.00
71485;BME280;59300;52.074;4.758;2023-02-04T08:53:31;103717.91;;;6.99;100.00
71485;BME280;59300;52.074;4.758;2023-02-04T08:56:32;103715.81;;;7.16;100.00
71485;BME280;59300;52.074;4.758;2023-02-04T08:59:34;103717.28;;;7.33;100.00
71485;BME280;59300;52.074;4.758;2023-02-04T09:02:35;103721.06;;;7.16;100.00
71485;BME280;59300;52.074;4.758;2023-02-04T09:05:37;103729.16;;;7.22;100.00
71485;BME280;59300;52.074;4.758;2023-02-04T09:08:38;103723.38;;;7.32;100.00
71485;BME280;59300;52.074;4.758;2023-02-04T09:11:40;103731.19;;;7.58;100.00
71485;BME280;59300;52.074;4.758;2023-02-04T09:14:41;103732.59;;;7.47;100.00
71485;BME280;59300;52.074;4.758;2023-02-04T09:17:43;103740.19;;;7.66;100.00
71485;BME280;59300;52.074;4.758;2023-02-04T09:20:44;103741.78;;;7.90;100.00
71485;BME280;59300;52.074;4.758;2023-02-04T09:23:45;103733.81;;;7.58;100.00
71485;BME280;59300;52.074;4.758;2023-02-04T09:26:47;103739.13;;;7.90;100.00
71485;BME280;59300;52.074;4.758;2023-02-04T09:29:48;103725.13;;;7.61;100.00
71485;BME280;59300;52.074;4.758;2023-02-04T09:32:50;103733.97;;;7.64;100.00
71485;BME280;59300;52.074;4.758;2023-02-04T09:35:51;103738.63;;;7.73;100.00
71485;BME280;59300;52.074;4.758;2023-02-04T09:38:52;103730.59;;;7.97;100.00
71485;BME280;59300;52.074;4.758;2023-02-04T09:41:54;103738.19;;;7.88;100.00
71485;BME280;59300;52.074;4.758;2023-02-04T09:44:55;103730.13;;;7.82;100.00
71485;BME280;59300;52.074;4.758;2023-02-04T09:47:57;103746.97;;;7.87;100.00
71485;BME280;59300;52.074;4.758;2023-02-04T09:51:04;103758.00;;;8.06;100.00
71485;BME280;59300;52.074;4.758;2023-02-04T09:54:06;103750.09;;;8.36;100.00
71485;BME280;59300;52.074;4.758;2023-02-04T09:57:17;103745.47;;;8.58;100.00
71485;BME280;59300;52.074;4.758;2023-02-04T10:00:20;103758.59;;;8.56;100.00
71485;BME280;59300;52.074;4.758;2023-02-04T10:03:22;103756.19;;;8.34;100.00
71485;BME280;59300;52.074;4.758;2023-02-04T10:06:23;103767.56;;;8.33;100.00
71485;BME280;59300;52.074;4.758;2023-02-04T10:09:25;103769.09;;;8.24;100.00
71485;BME280;59300;52.074;4.758;2023-02-04T10:12:26;103772.56;;;8.23;100.00
71485;BME280;59300;52.074;4.758;2023-02-04T10:15:27;103772.63;;;8.26;100.00
71485;BME280;59300;52.074;4.758;2023-02-04T10:18:30;103772.22;;;8.43;100.00
71485;BME280;59300;52.074;4.758;2023-02-04T10:21:33;103780.09;;;8.41;100.00
71485;BME280;59300;52.074;4.758;2023-02-04T10:24:35;103777.13;;;8.59;100.00
71485;BME280;59300;52.074;4.758;2023-02-04T10:27:46;103779.97;;;8.67;100.00
71485;BME280;59300;52.074;4.758;2023-02-04T10:30:47;103774.50;;;8.61;100.00
71485;BME280;59300;52.074;4.758;2023-02-04T10:33:49;103776.50;;;8.70;100.00
71485;BME280;59300;52.074;4.758;2023-02-04T10:36:52;103768.56;;;8.68;100.00
71485;BME280;59300;52.074;4.758;2023-02-04T10:39:54;103770.16;;;8.62;100.00
71485;BME280;59300;52.074;4.758;2023-02-04T10:42:55;103768.84;;;8.47;100.00
71485;BME280;59300;52.074;4.758;2023-02-04T10:45:58;103778.09;;;8.97;100.00
71485;BME280;59300;52.074;4.758;2023-02-04T10:48:59;103770.19;;;8.97;100.00
71485;BME280;59300;52.074;4.758;2023-02-04T10:52:05;103770.81;;;9.21;100.00
71485;BME280;59300;52.074;4.758;2023-02-04T10:55:15;103776.22;;;9.28;100.00
71485;BME280;59300;52.074;4.758;2023-02-04T10:58:17;103783.38;;;8.65;100.00
71485;BME280;59300;52.074;4.758;2023-02-04T11:01:20;103781.88;;;8.73;100.00
71485;BME280;59300;52.074;4.758;2023-02-04T11:04:22;103779.50;;;8.50;100.00
71485;BME280;59300;52.074;4.758;2023-02-04T11:07:23;103784.38;;;8.38;100.00
71485;BME280;59300;52.074;4.758;2023-02-04T11:10:29;103782.75;;;8.12;100.00
71485;BME280;59300;52.074;4.758;2023-02-04T11:13:42;103781.59;;;8.03;100.00
71485;BME280;59300;52.074;4.758;2023-02-04T11:16:47;103778.00;;;8.00;100.00
71485;BME280;59300;52.074;4.758;2023-02-04T11:19:49;103778.09;;;8.04;100.00
71485;BME280;59300;52.074;4.758;2023-02-04T11:22:50;103773.94;;;8.10;100.00
71485;BME280;59300;52.074;4.758;2023-02-04T11:32:29;103775.91;;;8.18;100.00
71485;BME280;59300;52.074;4.758;2023-02-04T11:35:32;103777.34;;;8.06;100.00
71485;BME280;59300;52.074;4.758;2023-02-04T11:38:34;103773.75;;;8.04;100.00
71485;BME280;59300;52.074;4.758;2023-02-04T11:41:35;103771.88;;;8.00;100.00
71485;BME280;59300;52.074;4.758;2023-02-04T11:44:37;103778.56;;;8.19;100.00
71485;BME280;59300;52.074;4.758;2023-02-04T11:47:38;103767.59;;;8.34;100.00
71485;BME280;59300;52.074;4.758;2023-02-04T11:50:40;103767.53;;;8.62;100.00
71485;BME280;59300;52.074;4.758;2023-02-04T11:53:41;103772.84;;;8.65;100.00
71485;BME280;59300;52.074;4.758;2023-02-04T11:56:44;103766.81;;;8.69;100.00
71485;BME280;59300;52.074;4.758;2023-02-04T11:59:45;103764.28;;;8.72;100.00
71485;BME280;59300;52.074;4.758;2023-02-04T12:02:48;103771.84;;;8.59;100.00
71485;BME280;59300;52.074;4.758;2023-02-04T12:05:50;103775.53;;;8.66;100.00
71485;BME280;59300;52.074;4.758;2023-02-04T12:08:51;103767.84;;;8.74;100.00
71485;BME280;59300;52.074;4.758;2023-02-04T12:11:57;103769.78;;;9.16;100.00
71485;BME280;59300;52.074;4.758;2023-02-04T12:15:03;103768.06;;;9.17;100.00
71485;BME280;59300;52.074;4.758;2023-02-04T12:18:09;103765.97;;;9.03;100.00
71485;BME280;59300;52.074;4.758;2023-02-04T12:21:11;103766.50;;;9.62;100.00
71485;BME280;59300;52.074;4.758;2023-02-04T12:24:12;103768.25;;;9.25;100.00
71485;BME280;59300;52.074;4.758;2023-02-04T12:27:13;103761.16;;;9.60;100.00
71485;BME280;59300;52.074;4.758;2023-02-04T12:30:15;103763.22;;;9.72;100.00
71485;BME280;59300;52.074;4.758;2023-02-04T12:33:17;103771.31;;;9.43;100.00
71485;BME280;59300;52.074;4.758;2023-02-04T12:36:18;103781.44;;;9.25;100.00
71485;BME280;59300;52.074;4.758;2023-02-04T12:39:20;103773.16;;;9.11;100.00
71485;BME280;59300;52.074;4.758;2023-02-04T12:42:21;103765.00;;;9.00;100.00
71485;BME280;59300;52.074;4.758;2023-02-04T12:45:23;103769.78;;;9.15;100.00
71485;BME280;59300;52.074;4.758;2023-02-04T12:48:24;103764.09;;;8.99;100.00
71485;BME280;59300;52.074;4.758;2023-02-04T12:51:26;103762.59;;;9.09;100.00
71485;BME280;59300;52.074;4.758;2023-02-04T12:54:27;103765.25;;;9.09;100.00
71485;BME280;59300;52.074;4.758;2023-02-04T12:57:28;103755.72;;;9.52;100.00
71485;BME280;59300;52.074;4.758;2023-02-04T13:00:30;103759.31;;;9.18;100.00
71485;BME280;59300;52.074;4.758;2023-02-04T13:03:31;103753.94;;;9.13;100.00
71485;BME280;59300;52.074;4.758;2023-02-04T13:06:33;103749.44;;;9.09;100.00
71485;BME280;59300;52.074;4.758;2023-02-04T13:09:34;103749.66;;;9.18;100.00
71485;BME280;59300;52.074;4.758;2023-02-04T13:12:36;103747.88;;;9.17;100.00
71485;BME280;59300;52.074;4.758;2023-02-04T13:15:37;103744.81;;;9.00;100.00
71485;BME280;59300;52.074;4.758;2023-02-04T13:18:39;103754.75;;;8.77;100.00
71485;BME280;59300;52.074;4.758;2023-02-04T13:21:40;103748.56;;;8.75;100.00
71485;BME280;59300;52.074;4.758;2023-02-04T13:24:41;103748.41;;;8.38;100.00
71485;BME280;59300;52.074;4.758;2023-02-04T13:27:43;103742.53;;;8.47;100.00
71485;BME280;59300;52.074;4.758;2023-02-04T13:30:44;103738.16;;;8.48;100.00
71485;BME280;59300;52.074;4.758;2023-02-04T13:33:46;103749.44;;;8.43;100.00
71485;BME280;59300;52.074;4.758;2023-02-04T13:36:47;103750.22;;;8.41;100.00
71485;BME280;59300;52.074;4.758;2023-02-04T13:39:49;103752.59;;;8.30;100.00
71485;BME280;59300;52.074;4.758;2023-02-04T13:42:50;103749.78;;;8.25;100.00
71485;BME280;59300;52.074;4.758;2023-02-04T13:45:51;103757.97;;;8.35;100.00
71485;BME280;59300;52.074;4.758;2023-02-04T13:48:53;103759.66;;;8.33;100.00
71485;BME280;59300;52.074;4.758;2023-02-04T13:51:54;103741.28;;;8.34;100.00
71485;BME280;59300;52.074;4.758;2023-02-04T13:54:56;103746.47;;;8.31;100.00
71485;BME280;59300;52.074;4.758;2023-02-04T13:57:57;103742.53;;;8.47;100.00
71485;BME280;59300;52.074;4.758;2023-02-04T14:00:58;103740.53;;;8.40;100.00
71485;BME280;59300;52.074;4.758;2023-02-04T14:04:00;103747.84;;;8.18;100.00
71485;BME280;59300;52.074;4.758;2023-02-04T14:07:01;103758.75;;;8.02;100.00
71485;BME280;59300;52.074;4.758;2023-02-04T14:10:03;103754.34;;;8.00;100.00
71485;BME280;59300;52.074;4.758;2023-02-04T14:13:04;103755.22;;;7.99;100.00
71485;BME280;59300;52.074;4.758;2023-02-04T14:16:06;103743.34;;;8.14;100.00
71485;BME280;59300;52.074;4.758;2023-02-04T14:19:07;103750.72;;;8.27;100.00
71485;BME280;59300;52.074;4.758;2023-02-04T14:22:09;103746.41;;;8.29;100.00
71485;BME280;59300;52.074;4.758;2023-02-04T14:25:13;103739.78;;;8.44;100.00
71485;BME280;59300;52.074;4.758;2023-02-04T14:28:14;103738.50;;;8.29;100.00
71485;BME280;59300;52.074;4.758;2023-02-04T14:31:15;103743.19;;;8.40;100.00
71485;BME280;59300;52.074;4.758;2023-02-04T14:34:17;103742.53;;;8.47;100.00
71485;BME280;59300;52.074;4.758;2023-02-04T14:37:18;103743.31;;;8.44;100.00
71485;BME280;59300;52.074;4.758;2023-02-04T14:40:20;103738.94;;;8.45;100.00
71485;BME280;59300;52.074;4.758;2023-02-04T14:43:21;103744.50;;;8.54;100.00
71485;BME280;59300;52.074;4.758;2023-02-04T14:46:23;103735.78;;;8.57;100.00
71485;BME280;59300;52.074;4.758;2023-02-04T14:49:24;103746.75;;;8.42;100.00
71485;BME280;59300;52.074;4.758;2023-02-04T14:52:25;103756.28;;;8.37;100.00
71485;BME280;59300;52.074;4.758;2023-02-04T14:55:27;103749.03;;;8.29;100.00
71485;BME280;59300;52.074;4.758;2023-02-04T14:58:28;103743.78;;;8.29;100.00
71485;BME280;59300;52.074;4.758;2023-02-04T15:01:30;103746.41;;;8.29;100.00
71485;BME280;59300;52.074;4.758;2023-02-04T15:04:31;103746.91;;;8.16;100.00
71485;BME280;59300;52.074;4.758;2023-02-04T15:07:33;103752.13;;;8.14;100.00
71485;BME280;59300;52.074;4.758;2023-02-04T15:10:34;103741.91;;;8.25;100.00
71485;BME280;59300;52.074;4.758;2023-02-04T15:13:36;103751.16;;;8.11;100.00
71485;BME280;59300;52.074;4.758;2023-02-04T15:16:37;103754.53;;;8.07;100.00
71485;BME280;59300;52.074;4.758;2023-02-04T15:19:39;103761.56;;;8.06;100.00
71485;BME280;59300;52.074;4.758;2023-02-04T15:22:40;103763.75;;;7.92;100.00
71485;BME280;59300;52.074;4.758;2023-02-04T15:25:41;103762.16;;;7.97;100.00
71485;BME280;59300;52.074;4.758;2023-02-04T15:28:43;103769.38;;;8.05;100.00
71485;BME280;59300;52.074;4.758;2023-02-04T15:31:44;103767.59;;;8.04;100.00
71485;BME280;59300;52.074;4.758;2023-02-04T15:34:46;103771.72;;;7.94;100.00
71485;BME280;59300;52.074;4.758;2023-02-04T15:37:47;103775.06;;;7.90;100.00
71485;BME280;59300;52.074;4.758;2023-02-04T15:40:49;103780.22;;;7.87;100.00
71485;BME280;59300;52.074;4.758;2023-02-04T15:43:50;103774.09;;;7.86;100.00
71485;BME280;59300;52.074;4.758;2023-02-04T15:46:53;103778.22;;;7.78;100.00
71485;BME280;59300;52.074;4.758;2023-02-04T15:49:54;103771.16;;;7.77;100.00
71485;BME280;59300;52.074;4.758;2023-02-04T15:52:55;103776.34;;;7.74;100.00
71485;BME280;59300;52.074;4.758;2023-02-04T15:55:57;103769.34;;;7.74;100.00
71485;BME280;59300;52.074;4.758;2023-02-04T15:58:58;103772.72;;;7.70;100.00
71485;BME280;59300;52.074;4.758;2023-02-04T16:02:02;103780.66;;;7.72;100.00